sensor_id;sensor_type;location;lat;lon;timestamp;P1;durP1;ratioP1;P2;durP2;ratioP2
57891;SDS011;43708;48.828;9.166;2023-05-10T00:01:55;1.58;;;1.10;;
57891;SDS011;43708;48.828;9.166;2023-05-10T00:04:20;1.20;;;1.05;;
57891;SDS011;43708;48.828;9.166;2023-05-10T00:06:46;1.08;;;0.98;;
57891;SDS011;43708;48.828;9.166;2023-05-10T00:09:12;1.08;;;1.00;;
57891;SDS011;43708;48.828;9.166;2023-05-10T00:11:37;1.10;;;1.10;;
57891;SDS011;43708;48.828;9.166;2023-05-10T00:14:03;1.20;;;1.10;;
57891;SDS011;43708;48.828;9.166;2023-05-10T00:16:28;1.05;;;1.05;;
57891;SDS011;43708;48.828;9.166;2023-05-10T00:18:54;1.30;;;1.20;;
57891;SDS011;43708;48.828;9.166;2023-05-10T00:21:20;1.25;;;1.15;;
57891;SDS011;43708;48.828;9.166;2023-05-10T00:23:45;1.33;;;1.23;;
57891;SDS011;43708;48.828;9.166;2023-05-10T00:26:11;1.23;;;1.02;;
57891;SDS011;43708;48.828;9.166;2023-05-10T00:28:36;1.23;;;1.13;;
57891;SDS011;43708;48.828;9.166;2023-05-10T00:31:02;1.33;;;1.23;;
57891;SDS011;43708;48.828;9.166;2023-05-10T00:33:28;1.20;;;1.02;;
57891;SDS011;43708;48.828;9.166;2023-05-10T00:35:53;1.27;;;1.17;;
57891;SDS011;43708;48.828;9.166;2023-05-10T00:38:19;1.63;;;1.52;;
57891;SDS011;43708;48.828;9.166;2023-05-10T00:40:44;1.00;;;1.00;;
57891;SDS011;43708;48.828;9.166;2023-05-10T00:43:10;1.75;;;1.38;;
57891;SDS011;43708;48.828;9.166;2023-05-10T00:45:35;1.25;;;1.15;;
57891;SDS011;43708;48.828;9.166;2023-05-10T00:48:02;1.23;;;1.13;;
57891;SDS011;43708;48.828;9.166;2023-05-10T00:50:28;1.10;;;1.00;;
57891;SDS011;43708;48.828;9.166;2023-05-10T00:52:55;1.55;;;1.10;;
57891;SDS011;43708;48.828;9.166;2023-05-10T00:55:22;1.52;;;1.40;;
57891;SDS011;43708;48.828;9.166;2023-05-10T00:57:48;0.80;;;0.80;;
57891;SDS011;43708;48.828;9.166;2023-05-10T01:00:14;1.23;;;1.13;;
57891;SDS011;43708;48.828;9.166;2023-05-10T01:02:43;1.15;;;1.05;;
57891;SDS011;43708;48.828;9.166;2023-05-10T01:05:10;1.35;;;1.00;;
57891;SDS011;43708;48.828;9.166;2023-05-10T01:07:35;0.88;;;0.88;;
57891;SDS011;43708;48.828;9.166;2023-05-10T01:10:01;1.25;;;0.95;;
57891;SDS011;43708;48.828;9.166;2023-05-10T01:12:27;0.80;;;0.80;;
57891;SDS011;43708;48.828;9.166;2023-05-10T01:14:52;1.13;;;0.93;;
57891;SDS011;43708;48.828;9.166;2023-05-10T01:17:19;0.80;;;0.80;;
57891;SDS011;43708;48.828;9.166;2023-05-10T01:19:46;0.90;;;0.90;;
57891;SDS011;43708;48.828;9.166;2023-05-10T01:33:30;0.90;;;0.90;;
57891;SDS011;43708;48.828;9.166;2023-05-10T01:38:59;0.90;;;0.63;;
57891;SDS011;43708;48.828;9.166;2023-05-10T01:47:37;0.80;;;0.77;;
57891;SDS011;43708;48.828;9.166;2023-05-10T01:50:06;0.93;;;0.80;;
57891;SDS011;43708;48.828;9.166;2023-05-10T01:52:42;0.77;;;0.77;;
57891;SDS011;43708;48.828;9.166;2023-05-10T01:55:13;0.80;;;0.75;;
57891;SDS011;43708;48.828;9.166;2023-05-10T01:57:42;0.75;;;0.75;;
57891;SDS011;43708;48.828;9.166;2023-05-10T02:00:09;0.90;;;0.90;;
57891;SDS011;43708;48.828;9.166;2023-05-10T02:02:37;1.00;;;0.57;;
57891;SDS011;43708;48.828;9.166;2023-05-10T02:05:05;0.70;;;0.60;;
57891;SDS011;43708;48.828;9.166;2023-05-10T02:07:32;0.80;;;0.73;;
57891;SDS011;43708;48.828;9.166;2023-05-10T02:10:01;0.70;;;0.70;;
57891;SDS011;43708;48.828;9.166;2023-05-10T02:12:29;0.68;;;0.68;;
57891;SDS011;43708;48.828;9.166;2023-05-10T02:14:57;0.82;;;0.70;;
57891;SDS011;43708;48.828;9.166;2023-05-10T02:17:26;0.70;;;0.70;;
57891;SDS011;43708;48.828;9.166;2023-05-10T02:19:53;0.80;;;0.80;;
57891;SDS011;43708;48.828;9.166;2023-05-10T02:22:21;1.00;;;0.90;;
57891;SDS011;43708;48.828;9.166;2023-05-10T02:24:48;0.77;;;0.70;;
57891;SDS011;43708;48.828;9.166;2023-05-10T02:27:15;0.63;;;0.63;;
57891;SDS011;43708;48.828;9.166;2023-05-10T02:29:42;0.80;;;0.70;;
57891;SDS011;43708;48.828;9.166;2023-05-10T02:32:09;0.90;;;0.90;;
57891;SDS011;43708;48.828;9.166;2023-05-10T02:34:36;0.82;;;0.80;;
57891;SDS011;43708;48.828;9.166;2023-05-10T02:37:03;0.98;;;0.70;;
57891;SDS011;43708;48.828;9.166;2023-05-10T02:39:29;0.80;;;0.80;;
57891;SDS011;43708;48.828;9.166;2023-05-10T02:41:57;0.80;;;0.80;;
57891;SDS011;43708;48.828;9.166;2023-05-10T02:44:23;0.77;;;0.70;;
57891;SDS011;43708;48.828;9.166;2023-05-10T02:46:52;0.65;;;0.60;;
57891;SDS011;43708;48.828;9.166;2023-05-10T02:49:17;1.35;;;0.70;;
57891;SDS011;43708;48.828;9.166;2023-05-10T02:51:44;0.70;;;0.70;;
57891;SDS011;43708;48.828;9.166;2023-05-10T02:54:18;0.50;;;0.50;;
57891;SDS011;43708;48.828;9.166;2023-05-10T02:56:53;1.67;;;0.80;;
57891;SDS011;43708;48.828;9.166;2023-05-10T02:59:22;0.80;;;0.80;;
57891;SDS011;43708;48.828;9.166;2023-05-10T03:01:48;0.60;;;0.60;;
57891;SDS011;43708;48.828;9.166;2023-05-10T03:04:13;0.73;;;0.73;;
57891;SDS011;43708;48.828;9.166;2023-05-10T03:06:39;0.52;;;0.52;;
57891;SDS011;43708;48.828;9.166;2023-05-10T03:09:05;1.38;;;0.60;;
57891;SDS011;43708;48.828;9.166;2023-05-10T03:16:47;0.57;;;0.57;;
57891;SDS011;43708;48.828;9.166;2023-05-10T03:21:48;1.33;;;0.60;;
57891;SDS011;43708;48.828;9.166;2023-05-10T03:24:16;0.50;;;0.50;;
57891;SDS011;43708;48.828;9.166;2023-05-10T03:26:45;0.60;;;0.60;;
57891;SDS011;43708;48.828;9.166;2023-05-10T03:29:11;0.73;;;0.60;;
57891;SDS011;43708;48.828;9.166;2023-05-10T03:31:39;0.65;;;0.50;;
57891;SDS011;43708;48.828;9.166;2023-05-10T03:34:05;1.05;;;0.80;;
57891;SDS011;43708;48.828;9.166;2023-05-10T03:36:31;0.73;;;0.60;;
57891;SDS011;43708;48.828;9.166;2023-05-10T03:38:56;0.68;;;0.68;;
57891;SDS011;43708;48.828;9.166;2023-05-10T03:41:22;0.60;;;0.60;;
57891;SDS011;43708;48.828;9.166;2023-05-10T03:43:47;0.60;;;0.60;;
57891;SDS011;43708;48.828;9.166;2023-05-10T03:46:13;0.45;;;0.45;;
57891;SDS011;43708;48.828;9.166;2023-05-10T03:48:39;0.50;;;0.50;;
57891;SDS011;43708;48.828;9.166;2023-05-10T03:51:04;1.38;;;0.55;;
57891;SDS011;43708;48.828;9.166;2023-05-10T03:53:30;0.50;;;0.50;;
57891;SDS011;43708;48.828;9.166;2023-05-10T03:55:55;0.50;;;0.50;;
57891;SDS011;43708;48.828;9.166;2023-05-10T03:58:21;0.50;;;0.50;;
57891;SDS011;43708;48.828;9.166;2023-05-10T04:00:47;0.50;;;0.50;;
57891;SDS011;43708;48.828;9.166;2023-05-10T04:03:12;1.20;;;0.73;;
57891;SDS011;43708;48.828;9.166;2023-05-10T04:05:38;0.40;;;0.40;;
57891;SDS011;43708;48.828;9.166;2023-05-10T04:08:04;0.77;;;0.50;;
57891;SDS011;43708;48.828;9.166;2023-05-10T04:10:30;0.57;;;0.50;;
57891;SDS011;43708;48.828;9.166;2023-05-10T04:12:56;0.52;;;0.52;;
57891;SDS011;43708;48.828;9.166;2023-05-10T04:15:22;0.50;;;0.50;;
57891;SDS011;43708;48.828;9.166;2023-05-10T04:17:47;0.47;;;0.47;;
57891;SDS011;43708;48.828;9.166;2023-05-10T04:20:13;0.75;;;0.50;;
57891;SDS011;43708;48.828;9.166;2023-05-10T04:22:39;0.55;;;0.40;;
57891;SDS011;43708;48.828;9.166;2023-05-10T04:25:04;0.40;;;0.40;;
57891;SDS011;43708;48.828;9.166;2023-05-10T04:27:31;1.08;;;0.57;;
57891;SDS011;43708;48.828;9.166;2023-05-10T04:29:56;0.55;;;0.52;;
57891;SDS011;43708;48.828;9.166;2023-05-10T04:32:22;2.50;;;0.60;;
57891;SDS011;43708;48.828;9.166;2023-05-10T04:34:48;1.20;;;0.57;;
57891;SDS011;43708;48.828;9.166;2023-05-10T04:37:14;0.30;;;0.30;;
57891;SDS011;43708;48.828;9.166;2023-05-10T04:39:39;0.40;;;0.40;;
57891;SDS011;43708;48.828;9.166;2023-05-10T04:42:05;0.30;;;0.30;;
57891;SDS011;43708;48.828;9.166;2023-05-10T04:44:31;0.40;;;0.32;;
57891;SDS011;43708;48.828;9.166;2023-05-10T04:46:57;0.82;;;0.50;;
57891;SDS011;43708;48.828;9.166;2023-05-10T04:49:23;0.50;;;0.50;;
57891;SDS011;43708;48.828;9.166;2023-05-10T04:51:48;0.50;;;0.40;;
57891;SDS011;43708;48.828;9.166;2023-05-10T04:54:14;0.47;;;0.47;;
57891;SDS011;43708;48.828;9.166;2023-05-10T04:56:40;0.40;;;0.40;;
57891;SDS011;43708;48.828;9.166;2023-05-10T04:59:05;0.52;;;0.50;;
57891;SDS011;43708;48.828;9.166;2023-05-10T05:01:31;0.32;;;0.30;;
57891;SDS011;43708;48.828;9.166;2023-05-10T05:03:57;1.20;;;1.10;;
57891;SDS011;43708;48.828;9.166;2023-05-10T05:06:24;0.40;;;0.40;;
57891;SDS011;43708;48.828;9.166;2023-05-10T05:08:50;0.30;;;0.30;;
57891;SDS011;43708;48.828;9.166;2023-05-10T05:11:15;0.32;;;0.22;;
57891;SDS011;43708;48.828;9.166;2023-05-10T05:13:44;0.60;;;0.32;;
57891;SDS011;43708;48.828;9.166;2023-05-10T05:16:10;0.32;;;0.32;;
57891;SDS011;43708;48.828;9.166;2023-05-10T05:18:36;0.30;;;0.28;;
57891;SDS011;43708;48.828;9.166;2023-05-10T05:21:01;0.40;;;0.30;;
57891;SDS011;43708;48.828;9.166;2023-05-10T05:23:27;1.00;;;0.32;;
57891;SDS011;43708;48.828;9.166;2023-05-10T05:25:53;0.30;;;0.30;;
57891;SDS011;43708;48.828;9.166;2023-05-10T05:28:19;0.40;;;0.40;;
57891;SDS011;43708;48.828;9.166;2023-05-10T05:30:45;0.30;;;0.30;;
57891;SDS011;43708;48.828;9.166;2023-05-10T05:33:10;0.40;;;0.20;;
57891;SDS011;43708;48.828;9.166;2023-05-10T05:35:36;1.00;;;0.50;;
57891;SDS011;43708;48.828;9.166;2023-05-10T05:38:02;0.50;;;0.50;;
57891;SDS011;43708;48.828;9.166;2023-05-10T05:40:27;0.82;;;0.47;;
57891;SDS011;43708;48.828;9.166;2023-05-10T05:42:53;1.63;;;0.50;;
57891;SDS011;43708;48.828;9.166;2023-05-10T05:45:18;0.50;;;0.40;;
57891;SDS011;43708;48.828;9.166;2023-05-10T05:47:44;0.40;;;0.40;;
57891;SDS011;43708;48.828;9.166;2023-05-10T05:50:10;0.40;;;0.40;;
57891;SDS011;43708;48.828;9.166;2023-05-10T05:52:35;1.13;;;0.40;;
57891;SDS011;43708;48.828;9.166;2023-05-10T05:55:01;0.60;;;0.60;;
57891;SDS011;43708;48.828;9.166;2023-05-10T05:57:26;1.05;;;0.47;;
57891;SDS011;43708;48.828;9.166;2023-05-10T05:59:53;0.88;;;0.50;;
57891;SDS011;43708;48.828;9.166;2023-05-10T06:02:20;0.40;;;0.40;;
57891;SDS011;43708;48.828;9.166;2023-05-10T06:04:45;0.40;;;0.40;;
57891;SDS011;43708;48.828;9.166;2023-05-10T06:07:11;1.10;;;0.55;;
57891;SDS011;43708;48.828;9.166;2023-05-10T06:09:37;0.93;;;0.60;;
57891;SDS011;43708;48.828;9.166;2023-05-10T06:12:02;1.15;;;0.50;;
57891;SDS011;43708;48.828;9.166;2023-05-10T06:14:28;0.43;;;0.43;;
57891;SDS011;43708;48.828;9.166;2023-05-10T06:16:54;3.40;;;0.50;;
57891;SDS011;43708;48.828;9.166;2023-05-10T06:19:19;1.00;;;0.50;;
57891;SDS011;43708;48.828;9.166;2023-05-10T06:21:45;2.25;;;0.50;;
57891;SDS011;43708;48.828;9.166;2023-05-10T06:24:10;0.60;;;0.50;;
57891;SDS011;43708;48.828;9.166;2023-05-10T06:26:36;1.13;;;0.52;;
57891;SDS011;43708;48.828;9.166;2023-05-10T06:29:01;0.60;;;0.50;;
57891;SDS011;43708;48.828;9.166;2023-05-10T06:31:27;3.20;;;0.70;;
57891;SDS011;43708;48.828;9.166;2023-05-10T06:33:52;0.70;;;0.65;;
57891;SDS011;43708;48.828;9.166;2023-05-10T06:36:18;0.85;;;0.55;;
57891;SDS011;43708;48.828;9.166;2023-05-10T06:38:44;0.65;;;0.60;;
57891;SDS011;43708;48.828;9.166;2023-05-10T06:41:09;0.60;;;0.60;;
57891;SDS011;43708;48.828;9.166;2023-05-10T06:43:35;1.00;;;0.47;;
57891;SDS011;43708;48.828;9.166;2023-05-10T06:46:01;1.23;;;0.60;;
57891;SDS011;43708;48.828;9.166;2023-05-10T06:48:27;0.40;;;0.40;;
57891;SDS011;43708;48.828;9.166;2023-05-10T06:50:53;0.82;;;0.60;;
57891;SDS011;43708;48.828;9.166;2023-05-10T06:53:18;0.70;;;0.50;;
57891;SDS011;43708;48.828;9.166;2023-05-10T06:55:44;0.88;;;0.50;;
57891;SDS011;43708;48.828;9.166;2023-05-10T06:58:09;0.90;;;0.77;;
57891;SDS011;43708;48.828;9.166;2023-05-10T07:00:35;0.77;;;0.60;;
57891;SDS011;43708;48.828;9.166;2023-05-10T07:03:05;0.40;;;0.40;;
57891;SDS011;43708;48.828;9.166;2023-05-10T07:05:31;1.38;;;0.60;;
57891;SDS011;43708;48.828;9.166;2023-05-10T07:07:56;0.73;;;0.60;;
57891;SDS011;43708;48.828;9.166;2023-05-10T07:10:22;1.05;;;0.70;;
57891;SDS011;43708;48.828;9.166;2023-05-10T07:12:48;3.55;;;0.75;;
57891;SDS011;43708;48.828;9.166;2023-05-10T07:15:13;0.40;;;0.40;;
57891;SDS011;43708;48.828;9.166;2023-05-10T07:17:39;0.95;;;0.50;;
57891;SDS011;43708;48.828;9.166;2023-05-10T07:20:05;0.60;;;0.60;;
57891;SDS011;43708;48.828;9.166;2023-05-10T07:22:31;1.63;;;0.60;;
57891;SDS011;43708;48.828;9.166;2023-05-10T07:24:56;1.25;;;0.50;;
57891;SDS011;43708;48.828;9.166;2023-05-10T07:27:22;0.70;;;0.60;;
57891;SDS011;43708;48.828;9.166;2023-05-10T07:29:47;1.25;;;0.60;;
57891;SDS011;43708;48.828;9.166;2023-05-10T07:32:13;1.05;;;0.75;;
57891;SDS011;43708;48.828;9.166;2023-05-10T07:34:39;1.00;;;0.65;;
57891;SDS011;43708;48.828;9.166;2023-05-10T07:37:04;1.38;;;0.57;;
57891;SDS011;43708;48.828;9.166;2023-05-10T07:39:31;0.80;;;0.60;;
57891;SDS011;43708;48.828;9.166;2023-05-10T07:41:56;1.13;;;0.63;;
57891;SDS011;43708;48.828;9.166;2023-05-10T07:44:22;0.70;;;0.70;;
57891;SDS011;43708;48.828;9.166;2023-05-10T07:46:48;0.90;;;0.77;;
57891;SDS011;43708;48.828;9.166;2023-05-10T07:49:13;1.38;;;0.70;;
57891;SDS011;43708;48.828;9.166;2023-05-10T07:51:39;1.40;;;0.60;;
57891;SDS011;43708;48.828;9.166;2023-05-10T07:54:05;0.60;;;0.60;;
57891;SDS011;43708;48.828;9.166;2023-05-10T07:56:31;0.82;;;0.52;;
57891;SDS011;43708;48.828;9.166;2023-05-10T07:59:00;1.33;;;0.80;;
57891;SDS011;43708;48.828;9.166;2023-05-10T08:01:32;0.60;;;0.60;;
57891;SDS011;43708;48.828;9.166;2023-05-10T08:03:59;0.50;;;0.50;;
57891;SDS011;43708;48.828;9.166;2023-05-10T08:06:26;0.50;;;0.50;;
57891;SDS011;43708;48.828;9.166;2023-05-10T08:08:53;0.63;;;0.50;;
57891;SDS011;43708;48.828;9.166;2023-05-10T08:11:22;0.68;;;0.55;;
57891;SDS011;43708;48.828;9.166;2023-05-10T08:13:48;1.05;;;0.65;;
57891;SDS011;43708;48.828;9.166;2023-05-10T08:16:14;1.05;;;0.52;;
57891;SDS011;43708;48.828;9.166;2023-05-10T08:18:41;0.50;;;0.45;;
57891;SDS011;43708;48.828;9.166;2023-05-10T08:21:06;1.02;;;0.60;;
57891;SDS011;43708;48.828;9.166;2023-05-10T08:23:32;1.60;;;0.50;;
57891;SDS011;43708;48.828;9.166;2023-05-10T08:25:58;0.40;;;0.40;;
57891;SDS011;43708;48.828;9.166;2023-05-10T08:28:24;0.40;;;0.28;;
57891;SDS011;43708;48.828;9.166;2023-05-10T08:30:50;0.50;;;0.50;;
57891;SDS011;43708;48.828;9.166;2023-05-10T08:33:17;0.40;;;0.35;;
57891;SDS011;43708;48.828;9.166;2023-05-10T08:35:43;1.33;;;0.47;;
57891;SDS011;43708;48.828;9.166;2023-05-10T08:38:09;0.60;;;0.50;;
57891;SDS011;43708;48.828;9.166;2023-05-10T08:40:35;0.50;;;0.40;;
57891;SDS011;43708;48.828;9.166;2023-05-10T08:43:07;0.30;;;0.30;;
57891;SDS011;43708;48.828;9.166;2023-05-10T08:45:38;0.65;;;0.50;;
57891;SDS011;43708;48.828;9.166;2023-05-10T08:48:05;0.70;;;0.70;;
57891;SDS011;43708;48.828;9.166;2023-05-10T08:50:34;0.68;;;0.45;;
57891;SDS011;43708;48.828;9.166;2023-05-10T08:53:03;0.70;;;0.50;;
57891;SDS011;43708;48.828;9.166;2023-05-10T08:55:31;0.47;;;0.40;;
57891;SDS011;43708;48.828;9.166;2023-05-10T08:57:58;0.85;;;0.50;;
57891;SDS011;43708;48.828;9.166;2023-05-10T09:00:25;0.68;;;0.40;;
57891;SDS011;43708;48.828;9.166;2023-05-10T09:02:51;0.55;;;0.40;;
57891;SDS011;43708;48.828;9.166;2023-05-10T09:05:17;0.88;;;0.40;;
57891;SDS011;43708;48.828;9.166;2023-05-10T09:07:43;0.40;;;0.40;;
57891;SDS011;43708;48.828;9.166;2023-05-10T09:10:09;0.60;;;0.60;;
57891;SDS011;43708;48.828;9.166;2023-05-10T09:12:36;0.88;;;0.40;;
57891;SDS011;43708;48.828;9.166;2023-05-10T09:15:02;0.70;;;0.50;;
57891;SDS011;43708;48.828;9.166;2023-05-10T09:17:30;0.55;;;0.50;;
57891;SDS011;43708;48.828;9.166;2023-05-10T09:19:59;0.50;;;0.47;;
57891;SDS011;43708;48.828;9.166;2023-05-10T09:22:25;0.43;;;0.43;;
57891;SDS011;43708;48.828;9.166;2023-05-10T09:25:10;0.77;;;0.60;;
57891;SDS011;43708;48.828;9.166;2023-05-10T09:27:41;1.10;;;0.60;;
57891;SDS011;43708;48.828;9.166;2023-05-10T09:30:10;0.70;;;0.70;;
57891;SDS011;43708;48.828;9.166;2023-05-10T09:37:40;0.52;;;0.45;;
57891;SDS011;43708;48.828;9.166;2023-05-10T09:40:07;0.40;;;0.40;;
57891;SDS011;43708;48.828;9.166;2023-05-10T09:42:36;0.45;;;0.45;;
57891;SDS011;43708;48.828;9.166;2023-05-10T09:45:04;0.60;;;0.50;;
57891;SDS011;43708;48.828;9.166;2023-05-10T09:47:32;0.50;;;0.50;;
57891;SDS011;43708;48.828;9.166;2023-05-10T09:49:58;0.50;;;0.50;;
57891;SDS011;43708;48.828;9.166;2023-05-10T09:52:28;2.53;;;0.63;;
57891;SDS011;43708;48.828;9.166;2023-05-10T09:55:13;0.88;;;0.60;;
57891;SDS011;43708;48.828;9.166;2023-05-10T09:57:38;1.15;;;0.60;;
57891;SDS011;43708;48.828;9.166;2023-05-10T10:00:05;0.40;;;0.40;;
57891;SDS011;43708;48.828;9.166;2023-05-10T10:02:31;0.95;;;0.60;;
57891;SDS011;43708;48.828;9.166;2023-05-10T10:04:58;2.28;;;0.70;;
57891;SDS011;43708;48.828;9.166;2023-05-10T10:07:25;2.35;;;0.60;;
57891;SDS011;43708;48.828;9.166;2023-05-10T10:09:51;0.85;;;0.60;;
57891;SDS011;43708;48.828;9.166;2023-05-10T10:12:18;1.38;;;0.60;;
57891;SDS011;43708;48.828;9.166;2023-05-10T10:14:46;0.90;;;0.60;;
57891;SDS011;43708;48.828;9.166;2023-05-10T10:17:12;0.70;;;0.68;;
57891;SDS011;43708;48.828;9.166;2023-05-10T10:19:38;2.42;;;0.70;;
57891;SDS011;43708;48.828;9.166;2023-05-10T10:22:04;0.82;;;0.50;;
57891;SDS011;43708;48.828;9.166;2023-05-10T10:24:30;2.20;;;0.73;;
57891;SDS011;43708;48.828;9.166;2023-05-10T10:26:57;1.52;;;0.45;;
57891;SDS011;43708;48.828;9.166;2023-05-10T10:32:54;0.50;;;0.50;;
57891;SDS011;43708;48.828;9.166;2023-05-10T10:35:28;1.13;;;0.55;;
57891;SDS011;43708;48.828;9.166;2023-05-10T10:37:55;1.33;;;0.45;;
57891;SDS011;43708;48.828;9.166;2023-05-10T10:40:29;0.50;;;0.43;;
57891;SDS011;43708;48.828;9.166;2023-05-10T10:42:56;0.50;;;0.50;;
57891;SDS011;43708;48.828;9.166;2023-05-10T10:45:23;0.60;;;0.60;;
57891;SDS011;43708;48.828;9.166;2023-05-10T10:50:47;0.98;;;0.50;;
57891;SDS011;43708;48.828;9.166;2023-05-10T10:53:12;1.02;;;0.60;;
57891;SDS011;43708;48.828;9.166;2023-05-10T10:55:47;0.80;;;0.60;;
57891;SDS011;43708;48.828;9.166;2023-05-10T10:58:29;0.63;;;0.60;;
57891;SDS011;43708;48.828;9.166;2023-05-10T11:01:11;0.40;;;0.40;;
57891;SDS011;43708;48.828;9.166;2023-05-10T11:03:41;0.90;;;0.60;;
57891;SDS011;43708;48.828;9.166;2023-05-10T11:06:39;0.40;;;0.40;;
57891;SDS011;43708;48.828;9.166;2023-05-10T11:09:06;0.45;;;0.45;;
57891;SDS011;43708;48.828;9.166;2023-05-10T11:11:34;0.60;;;0.60;;
57891;SDS011;43708;48.828;9.166;2023-05-10T11:14:04;1.50;;;0.57;;
57891;SDS011;43708;48.828;9.166;2023-05-10T11:16:42;0.50;;;0.50;;
57891;SDS011;43708;48.828;9.166;2023-05-10T11:19:09;0.70;;;0.60;;
57891;SDS011;43708;48.828;9.166;2023-05-10T11:21:49;0.70;;;0.70;;
57891;SDS011;43708;48.828;9.166;2023-05-10T11:24:17;0.50;;;0.50;;
57891;SDS011;43708;48.828;9.166;2023-05-10T11:26:44;0.43;;;0.43;;
57891;SDS011;43708;48.828;9.166;2023-05-10T11:29:11;0.60;;;0.60;;
57891;SDS011;43708;48.828;9.166;2023-05-10T11:31:42;0.60;;;0.60;;
57891;SDS011;43708;48.828;9.166;2023-05-10T11:34:13;0.40;;;0.40;;
57891;SDS011;43708;48.828;9.166;2023-05-10T11:36:52;0.75;;;0.43;;
57891;SDS011;43708;48.828;9.166;2023-05-10T11:39:19;1.77;;;0.57;;
57891;SDS011;43708;48.828;9.166;2023-05-10T11:41:47;0.70;;;0.55;;
57891;SDS011;43708;48.828;9.166;2023-05-10T11:44:13;0.50;;;0.50;;
57891;SDS011;43708;48.828;9.166;2023-05-10T11:46:39;0.60;;;0.40;;
57891;SDS011;43708;48.828;9.166;2023-05-10T11:49:05;0.30;;;0.30;;
57891;SDS011;43708;48.828;9.166;2023-05-10T11:51:33;0.50;;;0.43;;
57891;SDS011;43708;48.828;9.166;2023-05-10T11:54:07;0.70;;;0.50;;
57891;SDS011;43708;48.828;9.166;2023-05-10T11:56:34;1.65;;;0.50;;
57891;SDS011;43708;48.828;9.166;2023-05-10T11:59:01;0.30;;;0.30;;
57891;SDS011;43708;48.828;9.166;2023-05-10T12:01:27;0.70;;;0.60;;
57891;SDS011;43708;48.828;9.166;2023-05-10T12:03:54;0.73;;;0.50;;
57891;SDS011;43708;48.828;9.166;2023-05-10T12:06:28;0.30;;;0.30;;
57891;SDS011;43708;48.828;9.166;2023-05-10T12:08:56;0.85;;;0.60;;
57891;SDS011;43708;48.828;9.166;2023-05-10T12:11:24;0.65;;;0.40;;
57891;SDS011;43708;48.828;9.166;2023-05-10T12:13:51;1.23;;;0.60;;
57891;SDS011;43708;48.828;9.166;2023-05-10T12:16:28;0.60;;;0.60;;
57891;SDS011;43708;48.828;9.166;2023-05-10T12:18:57;0.70;;;0.52;;
57891;SDS011;43708;48.828;9.166;2023-05-10T12:21:24;0.47;;;0.47;;
57891;SDS011;43708;48.828;9.166;2023-05-10T12:23:52;0.95;;;0.40;;
57891;SDS011;43708;48.828;9.166;2023-05-10T12:26:21;0.50;;;0.50;;
57891;SDS011;43708;48.828;9.166;2023-05-10T12:28:47;0.40;;;0.40;;
57891;SDS011;43708;48.828;9.166;2023-05-10T12:31:13;0.82;;;0.63;;
57891;SDS011;43708;48.828;9.166;2023-05-10T12:33:39;1.23;;;0.50;;
57891;SDS011;43708;48.828;9.166;2023-05-10T12:36:07;0.57;;;0.57;;
57891;SDS011;43708;48.828;9.166;2023-05-10T12:38:37;0.47;;;0.47;;
57891;SDS011;43708;48.828;9.166;2023-05-10T12:41:05;0.50;;;0.50;;
57891;SDS011;43708;48.828;9.166;2023-05-10T12:43:32;0.85;;;0.43;;
57891;SDS011;43708;48.828;9.166;2023-05-10T12:45:58;1.10;;;0.60;;
57891;SDS011;43708;48.828;9.166;2023-05-10T12:48:29;0.50;;;0.50;;
57891;SDS011;43708;48.828;9.166;2023-05-10T12:50:56;0.50;;;0.50;;
57891;SDS011;43708;48.828;9.166;2023-05-10T12:53:21;0.90;;;0.60;;
57891;SDS011;43708;48.828;9.166;2023-05-10T12:55:47;0.50;;;0.50;;
57891;SDS011;43708;48.828;9.166;2023-05-10T12:58:13;0.85;;;0.60;;
57891;SDS011;43708;48.828;9.166;2023-05-10T13:00:39;0.57;;;0.57;;
57891;SDS011;43708;48.828;9.166;2023-05-10T13:03:05;0.52;;;0.52;;
57891;SDS011;43708;48.828;9.166;2023-05-10T13:05:33;0.50;;;0.50;;
57891;SDS011;43708;48.828;9.166;2023-05-10T13:07:59;0.50;;;0.50;;
57891;SDS011;43708;48.828;9.166;2023-05-10T13:10:24;0.85;;;0.70;;
57891;SDS011;43708;48.828;9.166;2023-05-10T13:12:50;1.17;;;0.55;;
57891;SDS011;43708;48.828;9.166;2023-05-10T13:15:16;0.80;;;0.60;;
57891;SDS011;43708;48.828;9.166;2023-05-10T13:17:42;0.63;;;0.50;;
57891;SDS011;43708;48.828;9.166;2023-05-10T13:20:08;0.90;;;0.70;;
57891;SDS011;43708;48.828;9.166;2023-05-10T13:22:36;0.70;;;0.60;;
57891;SDS011;43708;48.828;9.166;2023-05-10T13:25:02;0.77;;;0.77;;
57891;SDS011;43708;48.828;9.166;2023-05-10T13:27:28;0.70;;;0.70;;
57891;SDS011;43708;48.828;9.166;2023-05-10T13:29:54;0.88;;;0.80;;
57891;SDS011;43708;48.828;9.166;2023-05-10T13:32:20;1.35;;;0.77;;
57891;SDS011;43708;48.828;9.166;2023-05-10T13:34:45;0.60;;;0.60;;
57891;SDS011;43708;48.828;9.166;2023-05-10T13:37:11;1.10;;;0.60;;
57891;SDS011;43708;48.828;9.166;2023-05-10T13:39:37;1.42;;;0.80;;
57891;SDS011;43708;48.828;9.166;2023-05-10T13:42:03;0.95;;;0.77;;
57891;SDS011;43708;48.828;9.166;2023-05-10T13:44:29;0.75;;;0.70;;
57891;SDS011;43708;48.828;9.166;2023-05-10T13:46:55;0.90;;;0.70;;
57891;SDS011;43708;48.828;9.166;2023-05-10T13:49:21;0.70;;;0.70;;
57891;SDS011;43708;48.828;9.166;2023-05-10T13:51:47;0.75;;;0.70;;
57891;SDS011;43708;48.828;9.166;2023-05-10T13:54:13;1.60;;;0.60;;
57891;SDS011;43708;48.828;9.166;2023-05-10T13:56:39;0.70;;;0.70;;
57891;SDS011;43708;48.828;9.166;2023-05-10T13:59:05;1.13;;;0.80;;
57891;SDS011;43708;48.828;9.166;2023-05-10T14:01:32;0.73;;;0.70;;
57891;SDS011;43708;48.828;9.166;2023-05-10T14:03:59;0.85;;;0.73;;
57891;SDS011;43708;48.828;9.166;2023-05-10T14:06:25;0.75;;;0.63;;
57891;SDS011;43708;48.828;9.166;2023-05-10T14:08:51;0.60;;;0.60;;
57891;SDS011;43708;48.828;9.166;2023-05-10T14:11:17;0.70;;;0.70;;
57891;SDS011;43708;48.828;9.166;2023-05-10T14:13:43;0.80;;;0.75;;
57891;SDS011;43708;48.828;9.166;2023-05-10T14:16:09;1.17;;;0.82;;
57891;SDS011;43708;48.828;9.166;2023-05-10T14:18:34;0.65;;;0.65;;
57891;SDS011;43708;48.828;9.166;2023-05-10T14:21:01;0.82;;;0.82;;
57891;SDS011;43708;48.828;9.166;2023-05-10T14:23:27;1.25;;;0.70;;
57891;SDS011;43708;48.828;9.166;2023-05-10T14:25:53;0.88;;;0.82;;
57891;SDS011;43708;48.828;9.166;2023-05-10T14:28:19;0.82;;;0.70;;
57891;SDS011;43708;48.828;9.166;2023-05-10T14:30:45;0.82;;;0.82;;
57891;SDS011;43708;48.828;9.166;2023-05-10T14:33:12;1.15;;;0.77;;
57891;SDS011;43708;48.828;9.166;2023-05-10T14:35:38;0.70;;;0.70;;
57891;SDS011;43708;48.828;9.166;2023-05-10T14:38:04;0.95;;;0.80;;
57891;SDS011;43708;48.828;9.166;2023-05-10T14:40:29;1.10;;;0.70;;
57891;SDS011;43708;48.828;9.166;2023-05-10T14:42:55;0.70;;;0.70;;
57891;SDS011;43708;48.828;9.166;2023-05-10T14:45:21;0.70;;;0.70;;
57891;SDS011;43708;48.828;9.166;2023-05-10T14:47:47;2.30;;;0.68;;
57891;SDS011;43708;48.828;9.166;2023-05-10T14:50:13;0.70;;;0.70;;
57891;SDS011;43708;48.828;9.166;2023-05-10T14:52:39;0.82;;;0.80;;
57891;SDS011;43708;48.828;9.166;2023-05-10T14:55:05;0.93;;;0.68;;
57891;SDS011;43708;48.828;9.166;2023-05-10T14:57:31;1.00;;;0.60;;
57891;SDS011;43708;48.828;9.166;2023-05-10T14:59:57;1.23;;;0.73;;
57891;SDS011;43708;48.828;9.166;2023-05-10T15:02:22;0.60;;;0.57;;
57891;SDS011;43708;48.828;9.166;2023-05-10T15:04:48;1.15;;;0.70;;
57891;SDS011;43708;48.828;9.166;2023-05-10T15:07:14;1.27;;;0.80;;
57891;SDS011;43708;48.828;9.166;2023-05-10T15:09:41;0.80;;;0.80;;
57891;SDS011;43708;48.828;9.166;2023-05-10T15:12:06;0.80;;;0.80;;
57891;SDS011;43708;48.828;9.166;2023-05-10T15:14:32;1.10;;;0.68;;
57891;SDS011;43708;48.828;9.166;2023-05-10T15:16:58;0.82;;;0.75;;
57891;SDS011;43708;48.828;9.166;2023-05-10T15:19:24;0.75;;;0.70;;
57891;SDS011;43708;48.828;9.166;2023-05-10T15:21:49;1.17;;;0.88;;
57891;SDS011;43708;48.828;9.166;2023-05-10T15:24:15;0.93;;;0.60;;
57891;SDS011;43708;48.828;9.166;2023-05-10T15:26:41;0.60;;;0.60;;